createdAt,value
2022-11-16T00:00:18.645Z,0.00
2022-11-16T00:00:48.646Z,0.00
2022-11-16T00:01:18.642Z,0.00
2022-11-16T00:01:48.709Z,0.00
2022-11-16T00:02:18.756Z,0.00
2022-11-16T00:02:48.762Z,0.00
2022-11-16T00:03:18.761Z,0.00
2022-11-16T00:03:48.757Z,0.00
2022-11-16T00:04:18.733Z,0.00
2022-11-16T00:04:48.703Z,0.00
2022-11-16T00:05:18.666Z,0.00
2022-11-16T00:05:48.632Z,0.00
2022-11-16T00:06:18.615Z,0.00
2022-11-16T00:06:48.602Z,0.00
2022-11-16T00:07:18.653Z,0.00
2022-11-16T00:07:48.713Z,0.00
2022-11-16T00:08:18.765Z,0.00
2022-11-16T00:08:48.758Z,0.00
2022-11-16T00:09:18.732Z,0.00
2022-11-16T00:09:48.704Z,0.00
2022-11-16T00:10:18.677Z,0.00
2022-11-16T00:10:48.652Z,0.00
2022-11-16T00:11:18.629Z,0.00
2022-11-16T00:11:48.595Z,0.00
2022-11-16T00:12:18.578Z,0.00
2022-11-16T00:12:48.543Z,0.00
2022-11-16T00:13:18.503Z,0.00
2022-11-16T00:13:48.502Z,0.00
2022-11-16T00:14:18.471Z,0.00
2022-11-16T00:14:48.443Z,0.00
2022-11-16T00:15:18.629Z,0.00
2022-11-16T00:15:48.588Z,0.00
2022-11-16T00:16:18.564Z,0.00
2022-11-16T00:16:48.533Z,0.00
2022-11-16T00:17:18.509Z,0.00
2022-11-16T00:17:48.484Z,0.00
2022-11-16T00:18:18.452Z,0.00
2022-11-16T00:18:48.442Z,0.00
2022-11-16T00:19:18.410Z,0.00
2022-11-16T00:19:48.385Z,0.00
2022-11-16T00:20:18.348Z,0.00
2022-11-16T00:20:48.348Z,0.00
2022-11-16T00:21:18.305Z,0.00
2022-11-16T00:21:48.280Z,0.00
2022-11-16T00:22:18.252Z,0.00
2022-11-16T00:22:48.226Z,0.00
2022-11-16T00:23:18.197Z,0.00
2022-11-16T00:23:48.179Z,0.00
2022-11-16T00:24:18.182Z,0.00
2022-11-16T00:24:48.190Z,0.00
2022-11-16T00:25:18.155Z,0.00
2022-11-16T00:25:48.112Z,0.00
2022-11-16T00:26:18.088Z,0.00
2022-11-16T00:26:48.044Z,0.00
2022-11-16T00:27:18.006Z,0.00
2022-11-16T00:27:47.993Z,0.00
2022-11-16T00:28:17.957Z,0.00
2022-11-16T00:28:47.927Z,0.00
2022-11-16T00:29:17.892Z,0.00
2022-11-16T00:29:47.867Z,0.00
2022-11-16T00:30:17.831Z,0.00
2022-11-16T00:30:47.888Z,0.00
2022-11-16T00:31:17.856Z,0.00
2022-11-16T00:31:47.836Z,0.00
2022-11-16T00:32:17.844Z,0.00
2022-11-16T00:32:47.862Z,0.00
2022-11-16T00:33:17.863Z,0.00
2022-11-16T00:33:47.836Z,0.00
2022-11-16T00:34:17.832Z,0.00
2022-11-16T00:34:47.809Z,0.00
2022-11-16T00:35:17.779Z,0.00
2022-11-16T00:35:47.742Z,0.00
2022-11-16T00:36:17.725Z,0.00
2022-11-16T00:36:47.700Z,0.00
2022-11-16T00:37:17.670Z,0.00
2022-11-16T00:37:47.667Z,0.00
2022-11-16T00:38:17.640Z,0.00
2022-11-16T00:38:47.614Z,0.00
2022-11-16T00:39:17.577Z,0.00
2022-11-16T00:39:47.580Z,0.00
2022-11-16T00:40:17.596Z,0.00
2022-11-16T00:40:47.578Z,0.00
2022-11-16T00:41:17.562Z,0.00
2022-11-16T00:41:47.533Z,0.00
2022-11-16T00:42:17.506Z,0.00
2022-11-16T00:42:47.513Z,0.00
2022-11-16T00:43:17.470Z,0.00
2022-11-16T00:43:47.442Z,0.00
2022-11-16T00:44:17.412Z,0.00
2022-11-16T00:44:47.374Z,0.00
2022-11-16T00:45:17.347Z,0.00
2022-11-16T00:45:47.311Z,0.00
2022-11-16T00:46:17.327Z,0.00
2022-11-16T00:46:47.295Z,0.00
2022-11-16T00:47:17.285Z,0.00
2022-11-16T00:47:47.275Z,0.00
2022-11-16T00:48:17.249Z,0.00
2022-11-16T00:48:47.228Z,0.00
2022-11-16T00:49:17.195Z,0.00
2022-11-16T00:49:47.166Z,0.00
2022-11-16T00:50:17.144Z,0.00
2022-11-16T00:50:47.162Z,0.00
2022-11-16T00:51:17.177Z,0.00
2022-11-16T00:51:47.154Z,0.00
2022-11-16T00:52:17.156Z,0.00
2022-11-16T00:52:47.176Z,0.00
2022-11-16T00:53:17.149Z,0.00
2022-11-16T00:53:47.124Z,0.00
2022-11-16T00:54:17.096Z,0.00
2022-11-16T00:54:47.058Z,0.00
2022-11-16T00:55:17.029Z,0.00
2022-11-16T00:55:46.997Z,0.00
2022-11-16T00:56:16.966Z,0.00
2022-11-16T00:56:46.941Z,0.00
2022-11-16T00:57:16.910Z,0.00
2022-11-16T00:57:46.883Z,0.00
2022-11-16T00:58:16.892Z,0.00
2022-11-16T00:58:46.854Z,0.00
2022-11-16T00:59:16.825Z,0.00
2022-11-16T00:59:46.821Z,0.00
2022-11-16T01:00:16.820Z,0.00
2022-11-16T01:00:46.784Z,0.00
2022-11-16T01:01:16.855Z,0.00
2022-11-16T01:01:46.959Z,0.00
2022-11-16T01:02:16.976Z,0.00
2022-11-16T01:02:46.950Z,0.00
2022-11-16T01:03:16.931Z,0.00
2022-11-16T01:03:46.914Z,0.00
2022-11-16T01:04:16.887Z,0.00
2022-11-16T01:04:46.872Z,0.00
2022-11-16T01:05:16.844Z,0.00
2022-11-16T01:05:46.819Z,0.00
2022-11-16T01:06:16.836Z,0.00
2022-11-16T01:06:46.920Z,0.00
2022-11-16T01:07:16.980Z,0.00
2022-11-16T01:07:47.055Z,0.00
2022-11-16T01:08:17.077Z,0.00
2022-11-16T01:08:47.048Z,0.00
2022-11-16T01:09:17.020Z,0.00
2022-11-16T01:09:47.010Z,0.00
2022-11-16T01:10:16.985Z,0.00
2022-11-16T01:10:46.957Z,0.00
2022-11-16T01:11:16.933Z,0.00
2022-11-16T01:11:46.909Z,0.00
2022-11-16T01:12:16.887Z,0.00
2022-11-16T01:12:46.854Z,0.00
2022-11-16T01:13:16.824Z,0.00
2022-11-16T01:13:46.800Z,0.00
2022-11-16T01:14:16.772Z,0.00
2022-11-16T01:14:46.762Z,0.00
2022-11-16T01:15:16.721Z,0.00
2022-11-16T01:15:46.733Z,0.00
2022-11-16T01:16:16.704Z,0.00
2022-11-16T01:16:46.684Z,0.00
2022-11-16T01:17:16.693Z,0.00
2022-11-16T01:17:46.665Z,0.00
2022-11-16T01:18:16.628Z,0.00
2022-11-16T01:18:46.602Z,0.00
2022-11-16T01:19:16.563Z,0.00
2022-11-16T01:19:46.537Z,0.00
2022-11-16T01:20:16.507Z,0.00
2022-11-16T01:20:46.507Z,0.00
2022-11-16T01:21:16.517Z,0.00
2022-11-16T01:21:46.493Z,0.00
2022-11-16T01:22:16.473Z,0.00
2022-11-16T01:22:46.460Z,0.00
2022-11-16T01:23:16.432Z,0.00
2022-11-16T01:23:46.402Z,0.00
2022-11-16T01:24:16.427Z,0.00
2022-11-16T01:24:46.399Z,0.00
2022-11-16T01:25:16.402Z,0.00
2022-11-16T01:25:46.387Z,0.00
2022-11-16T01:26:16.378Z,0.00
2022-11-16T01:26:46.342Z,0.00
2022-11-16T01:27:16.334Z,0.00
2022-11-16T01:27:46.299Z,0.00
2022-11-16T01:28:16.323Z,0.00
2022-11-16T01:28:46.293Z,0.00
2022-11-16T01:29:16.272Z,0.00
2022-11-16T01:29:46.246Z,0.00
2022-11-16T01:30:16.202Z,0.00
2022-11-16T01:30:46.182Z,0.00
2022-11-16T01:31:16.156Z,0.00
2022-11-16T01:31:46.128Z,0.00
2022-11-16T01:32:16.091Z,0.00
2022-11-16T01:32:46.088Z,0.00
2022-11-16T01:33:16.061Z,0.00
2022-11-16T01:33:46.023Z,0.00
2022-11-16T01:34:15.988Z,0.00
2022-11-16T01:34:45.951Z,0.00
2022-11-16T01:35:15.917Z,0.00
2022-11-16T01:35:45.886Z,0.00
2022-11-16T01:36:15.864Z,0.00
2022-11-16T01:36:45.833Z,0.00
2022-11-16T01:37:15.829Z,0.00
2022-11-16T01:37:45.802Z,0.00
2022-11-16T01:38:15.768Z,0.00
2022-11-16T01:38:45.873Z,0.00
2022-11-16T01:39:15.907Z,0.00
2022-11-16T01:39:45.876Z,0.00
2022-11-16T01:40:15.839Z,0.00
2022-11-16T01:40:45.812Z,0.00
2022-11-16T01:41:15.794Z,0.00
2022-11-16T01:41:45.767Z,0.00
2022-11-16T01:42:15.739Z,0.00
2022-11-16T01:42:45.710Z,0.00
2022-11-16T01:43:15.677Z,0.00
2022-11-16T01:43:45.686Z,0.00
2022-11-16T01:44:15.691Z,0.00
2022-11-16T01:44:45.669Z,0.00
2022-11-16T01:45:15.639Z,0.00
2022-11-16T01:45:45.612Z,0.00
2022-11-16T01:46:15.584Z,0.00
2022-11-16T01:46:45.562Z,0.00
2022-11-16T01:47:15.532Z,0.00
2022-11-16T01:47:45.512Z,0.00
2022-11-16T01:48:15.574Z,0.00
2022-11-16T01:48:45.718Z,0.00
2022-11-16T01:49:15.712Z,0.00
2022-11-16T01:49:45.703Z,0.00
2022-11-16T01:50:15.676Z,0.00
2022-11-16T01:50:45.668Z,0.00
2022-11-16T01:51:15.635Z,0.00
2022-11-16T01:51:45.604Z,0.00
2022-11-16T01:52:15.570Z,0.00
2022-11-16T01:52:45.554Z,0.00
2022-11-16T01:53:15.536Z,0.00
2022-11-16T01:53:45.621Z,0.00
2022-11-16T01:54:15.601Z,0.00
2022-11-16T01:54:45.575Z,0.00
2022-11-16T01:55:15.866Z,0.00
2022-11-16T01:55:46.005Z,0.00
2022-11-16T01:56:17.859Z,0.00
2022-11-16T01:56:49.341Z,0.00
2022-11-16T01:57:20.746Z,0.00
2022-11-16T01:57:58.594Z,0.00
2022-11-16T01:58:28.558Z,0.00
2022-11-16T01:58:58.596Z,0.00
2022-11-16T01:59:28.578Z,0.00
2022-11-16T01:59:58.597Z,0.00
2022-11-16T02:00:28.577Z,0.00
2022-11-16T02:00:58.655Z,0.00
2022-11-16T02:01:28.799Z,0.00
2022-11-16T02:01:58.804Z,0.00
2022-11-16T02:02:28.805Z,0.00
2022-11-16T02:02:58.803Z,0.00
2022-11-16T02:03:28.824Z,0.00
2022-11-16T02:03:58.801Z,0.00
2022-11-16T02:04:28.761Z,0.00
2022-11-16T02:04:58.753Z,0.00
2022-11-16T02:05:28.715Z,0.00
2022-11-16T02:05:58.708Z,0.00
2022-11-16T02:06:28.683Z,0.00
2022-11-16T02:06:58.677Z,0.00
2022-11-16T02:07:28.697Z,0.00
2022-11-16T02:07:58.689Z,0.00
2022-11-16T02:08:28.683Z,0.00
2022-11-16T02:08:58.665Z,0.00
2022-11-16T02:09:28.672Z,0.00
2022-11-16T02:09:58.644Z,0.00
2022-11-16T02:10:28.611Z,0.00
2022-11-16T02:10:58.604Z,0.00
2022-11-16T02:11:28.575Z,0.00
2022-11-16T02:11:58.541Z,0.00
2022-11-16T02:12:28.511Z,0.00
2022-11-16T02:12:58.484Z,0.00
2022-11-16T02:13:28.452Z,0.00
2022-11-16T02:13:58.664Z,0.00
2022-11-16T02:14:28.630Z,0.00
2022-11-16T02:14:58.621Z,0.00
2022-11-16T02:15:28.584Z,0.00
2022-11-16T02:15:58.550Z,0.00
2022-11-16T02:16:28.521Z,0.00
2022-11-16T02:16:58.493Z,0.00
2022-11-16T02:17:28.456Z,0.00
2022-11-16T02:17:58.470Z,0.00
2022-11-16T02:18:28.441Z,0.00
2022-11-16T02:18:58.441Z,0.00
2022-11-16T02:19:28.416Z,0.00
2022-11-16T02:19:58.421Z,0.00
2022-11-16T02:20:28.387Z,0.00
2022-11-16T02:20:58.358Z,0.00
2022-11-16T02:21:28.334Z,0.00
2022-11-16T02:21:58.342Z,0.00
2022-11-16T02:22:28.317Z,0.00
2022-11-16T02:22:58.280Z,0.00
2022-11-16T02:23:28.257Z,0.00
2022-11-16T02:23:58.266Z,0.00
2022-11-16T02:24:28.272Z,0.00
2022-11-16T02:24:58.257Z,0.00
2022-11-16T02:25:28.232Z,0.00
2022-11-16T02:25:58.196Z,0.00
2022-11-16T02:26:28.158Z,0.00
2022-11-16T02:26:58.141Z,0.00
2022-11-16T02:27:28.115Z,0.00
2022-11-16T02:27:58.096Z,0.00
2022-11-16T02:28:28.072Z,0.00
2022-11-16T02:28:58.089Z,0.00
2022-11-16T02:29:28.071Z,0.00
2022-11-16T02:29:58.069Z,0.00
2022-11-16T02:30:28.034Z,0.00
2022-11-16T02:30:58.015Z,0.00
2022-11-16T02:31:27.989Z,0.00
2022-11-16T02:31:57.962Z,0.00
2022-11-16T02:32:27.925Z,0.00
2022-11-16T02:32:57.887Z,0.00
2022-11-16T02:33:27.859Z,0.00
2022-11-16T02:33:57.824Z,0.00
2022-11-16T02:34:27.853Z,0.00
2022-11-16T02:34:57.832Z,0.00
2022-11-16T02:35:27.826Z,0.00
2022-11-16T02:35:57.798Z,0.00
2022-11-16T02:36:27.763Z,0.00
2022-11-16T02:36:57.765Z,0.00
2022-11-16T02:37:27.743Z,0.00
2022-11-16T02:37:57.708Z,0.00
2022-11-16T02:38:27.684Z,0.00
2022-11-16T02:38:57.655Z,0.00
2022-11-16T02:39:27.634Z,0.00
2022-11-16T02:39:57.600Z,0.00
2022-11-16T02:40:27.569Z,0.00
2022-11-16T02:40:57.540Z,0.00
2022-11-16T02:41:27.499Z,0.00
2022-11-16T02:41:57.474Z,0.00
2022-11-16T02:42:27.450Z,0.00
2022-11-16T02:42:57.424Z,0.00
2022-11-16T02:43:27.385Z,0.00
2022-11-16T02:43:57.354Z,0.00
2022-11-16T02:44:27.332Z,0.00
2022-11-16T02:44:57.297Z,0.00
2022-11-16T02:45:27.272Z,0.00
2022-11-16T02:45:57.284Z,0.00
2022-11-16T02:46:27.265Z,0.00
2022-11-16T02:46:57.232Z,0.00
2022-11-16T02:47:27.204Z,0.00
2022-11-16T02:47:57.184Z,0.00
2022-11-16T02:48:27.147Z,0.00
2022-11-16T02:48:57.110Z,0.00
2022-11-16T02:49:27.109Z,0.00
2022-11-16T02:49:57.098Z,0.00
2022-11-16T02:50:27.057Z,0.00
2022-11-16T02:50:57.030Z,0.00
2022-11-16T02:51:27.007Z,0.00
2022-11-16T02:51:56.976Z,0.00
2022-11-16T02:52:26.948Z,0.00
2022-11-16T02:52:56.923Z,0.00
2022-11-16T02:53:26.897Z,0.00
2022-11-16T02:53:56.869Z,0.00
2022-11-16T02:54:26.852Z,0.00
2022-11-16T02:54:56.814Z,0.00
2022-11-16T02:55:26.785Z,0.00
2022-11-16T02:55:56.758Z,0.00
2022-11-16T02:56:26.738Z,0.00
2022-11-16T02:56:56.701Z,0.00
2022-11-16T02:57:26.677Z,0.00
2022-11-16T02:57:56.666Z,0.00
2022-11-16T02:58:26.629Z,0.00
2022-11-16T02:58:56.593Z,0.00
2022-11-16T02:59:26.598Z,0.00
2022-11-16T02:59:56.566Z,0.00
2022-11-16T03:00:26.559Z,0.00
2022-11-16T03:00:56.566Z,0.00
2022-11-16T03:01:26.580Z,0.00
2022-11-16T03:01:56.585Z,0.00
2022-11-16T03:02:26.557Z,0.00
2022-11-16T03:02:56.529Z,0.00
2022-11-16T03:03:26.494Z,0.00
2022-11-16T03:03:56.457Z,0.00
2022-11-16T03:04:26.447Z,0.00
2022-11-16T03:04:56.416Z,0.00
2022-11-16T03:05:26.427Z,0.00
2022-11-16T03:05:56.392Z,0.00
2022-11-16T03:06:26.396Z,0.00
2022-11-16T03:06:56.447Z,0.00
2022-11-16T03:07:26.479Z,0.00
2022-11-16T03:07:56.504Z,0.00
2022-11-16T03:08:26.474Z,0.00
2022-11-16T03:08:56.466Z,0.00
2022-11-16T03:09:26.451Z,0.00
2022-11-16T03:09:56.415Z,0.00
2022-11-16T03:10:26.395Z,0.00
2022-11-16T03:10:56.362Z,0.00
2022-11-16T03:11:26.344Z,0.00
2022-11-16T03:11:56.346Z,0.00
2022-11-16T03:12:26.310Z,0.00
2022-11-16T03:12:56.292Z,0.00
2022-11-16T03:13:26.256Z,0.00
2022-11-16T03:13:56.216Z,0.00
2022-11-16T03:14:26.187Z,0.00
2022-11-16T03:14:56.288Z,0.00
2022-11-16T03:15:26.271Z,0.00
2022-11-16T03:15:56.243Z,0.00
2022-11-16T03:16:26.215Z,0.00
2022-11-16T03:16:56.178Z,0.00
2022-11-16T03:17:26.150Z,0.00
2022-11-16T03:17:56.119Z,0.00
2022-11-16T03:18:26.089Z,0.00
2022-11-16T03:18:56.054Z,0.00
2022-11-16T03:19:26.032Z,0.00
2022-11-16T03:19:56.009Z,0.00
2022-11-16T03:20:26.005Z,0.00
2022-11-16T03:20:56.021Z,0.00
2022-11-16T03:21:26.002Z,0.00
2022-11-16T03:21:55.975Z,0.00
2022-11-16T03:22:25.939Z,0.00
2022-11-16T03:22:55.924Z,0.00
2022-11-16T03:23:25.892Z,0.00
2022-11-16T03:23:55.855Z,0.00
2022-11-16T03:24:25.829Z,0.00
2022-11-16T03:24:55.816Z,0.00
2022-11-16T03:25:25.797Z,0.00
2022-11-16T03:25:55.801Z,0.00
2022-11-16T03:26:25.768Z,0.00
2022-11-16T03:26:55.729Z,0.00
2022-11-16T03:27:25.688Z,0.00
2022-11-16T03:27:55.652Z,0.00
2022-11-16T03:28:25.627Z,0.00
2022-11-16T03:28:55.598Z,0.00
2022-11-16T03:29:25.558Z,0.00
2022-11-16T03:29:55.533Z,0.00
2022-11-16T03:30:25.530Z,0.00
2022-11-16T03:30:55.490Z,0.00
2022-11-16T03:31:25.461Z,0.00
2022-11-16T03:31:55.420Z,0.00
2022-11-16T03:32:25.394Z,0.00
2022-11-16T03:32:55.390Z,0.00
2022-11-16T03:33:25.354Z,0.00
2022-11-16T03:33:55.327Z,0.00
2022-11-16T03:34:25.299Z,0.00
2022-11-16T03:34:55.265Z,0.00
2022-11-16T03:35:25.252Z,0.00
2022-11-16T03:35:55.211Z,0.00
2022-11-16T03:36:25.200Z,0.00
2022-11-16T03:36:55.167Z,0.00
2022-11-16T03:37:25.142Z,0.00
2022-11-16T03:37:55.105Z,0.00
2022-11-16T03:38:25.086Z,0.00
2022-11-16T03:38:55.059Z,0.00
2022-11-16T03:39:25.030Z,0.00
2022-11-16T03:39:54.994Z,0.00
2022-11-16T03:40:24.993Z,0.00
2022-11-16T03:40:54.955Z,0.00
2022-11-16T03:41:24.931Z,0.00
2022-11-16T03:41:54.903Z,0.00
2022-11-16T03:42:24.883Z,0.00
2022-11-16T03:42:54.838Z,0.00
2022-11-16T03:43:24.811Z,0.00
2022-11-16T03:43:54.784Z,0.00
2022-11-16T03:44:24.755Z,0.00
2022-11-16T03:44:54.730Z,0.00
2022-11-16T03:45:24.748Z,0.00
2022-11-16T03:45:54.721Z,0.00
2022-11-16T03:46:24.678Z,0.00
2022-11-16T03:46:54.659Z,0.00
2022-11-16T03:47:24.671Z,0.00
2022-11-16T03:47:54.629Z,0.00
2022-11-16T03:48:24.601Z,0.00
2022-11-16T03:48:54.574Z,0.00
2022-11-16T03:49:24.539Z,0.00
2022-11-16T03:49:54.509Z,0.00
2022-11-16T03:50:24.484Z,0.00
2022-11-16T03:50:54.491Z,0.00
2022-11-16T03:51:24.470Z,0.00
2022-11-16T03:51:54.479Z,0.00
2022-11-16T03:52:24.447Z,0.00
2022-11-16T03:52:54.413Z,0.00
2022-11-16T03:53:24.387Z,0.00
2022-11-16T03:53:54.381Z,0.00
2022-11-16T03:54:24.392Z,0.00
2022-11-16T03:54:54.384Z,0.00
2022-11-16T03:55:24.357Z,0.00
2022-11-16T03:55:54.330Z,0.00
2022-11-16T03:56:24.305Z,0.00
2022-11-16T03:56:54.301Z,0.00
2022-11-16T03:57:24.269Z,0.00
2022-11-16T03:57:54.256Z,0.00
2022-11-16T03:58:24.221Z,0.00
2022-11-16T03:58:54.194Z,0.00
2022-11-16T03:59:24.156Z,0.00
2022-11-16T03:59:54.131Z,0.00
2022-11-16T04:00:24.101Z,0.00
2022-11-16T04:00:54.190Z,0.00
2022-11-16T04:01:24.282Z,0.00
2022-11-16T04:01:54.279Z,0.00
2022-11-16T04:02:24.244Z,0.00
2022-11-16T04:02:54.237Z,0.00
2022-11-16T04:03:24.258Z,0.00
2022-11-16T04:03:54.440Z,0.00
2022-11-16T04:04:24.581Z,0.00
2022-11-16T04:04:54.543Z,0.00
2022-11-16T04:05:24.520Z,0.00
2022-11-16T04:05:54.484Z,0.00
2022-11-16T04:06:24.451Z,0.00
2022-11-16T04:06:54.484Z,0.00
2022-11-16T04:07:24.687Z,0.00
2022-11-16T04:07:54.741Z,0.00
2022-11-16T04:08:24.724Z,0.00
2022-11-16T04:08:54.693Z,0.00
2022-11-16T04:09:24.698Z,0.00
2022-11-16T04:09:54.708Z,0.00
2022-11-16T04:10:24.670Z,0.00
2022-11-16T04:10:54.634Z,0.00
2022-11-16T04:11:24.608Z,0.00
2022-11-16T04:11:54.618Z,0.00
2022-11-16T04:12:24.584Z,0.00
2022-11-16T04:12:54.561Z,0.00
2022-11-16T04:13:24.545Z,0.00
2022-11-16T04:13:54.506Z,0.00
2022-11-16T04:14:24.480Z,0.00
2022-11-16T04:14:54.454Z,0.00
2022-11-16T04:15:24.424Z,0.00
2022-11-16T04:15:54.393Z,0.00
2022-11-16T04:16:24.440Z,0.00
2022-11-16T04:16:54.454Z,0.00
2022-11-16T04:17:24.428Z,0.00
2022-11-16T04:17:54.402Z,0.00
2022-11-16T04:18:24.373Z,0.00
2022-11-16T04:18:54.338Z,0.00
2022-11-16T04:19:24.309Z,0.00
2022-11-16T04:19:58.179Z,0.00
2022-11-16T04:20:28.426Z,0.00
2022-11-16T04:20:58.388Z,0.00
2022-11-16T04:21:28.369Z,0.00
2022-11-16T04:21:58.355Z,0.00
2022-11-16T04:22:28.348Z,0.00
2022-11-16T04:22:58.306Z,0.00
2022-11-16T04:23:28.283Z,0.00
2022-11-16T04:23:58.285Z,0.00
2022-11-16T04:24:28.295Z,0.00
2022-11-16T04:24:58.268Z,0.00
2022-11-16T04:25:28.230Z,0.00
2022-11-16T04:25:58.195Z,0.00
2022-11-16T04:26:28.216Z,0.00
2022-11-16T04:26:59.196Z,0.00
2022-11-16T04:27:29.157Z,0.00
2022-11-16T04:27:59.140Z,0.00
2022-11-16T04:28:29.161Z,0.00
2022-11-16T04:28:59.128Z,0.00
2022-11-16T04:29:29.105Z,0.00
2022-11-16T04:29:59.075Z,0.00
2022-11-16T04:30:29.050Z,0.00
2022-11-16T04:30:59.023Z,0.00
2022-11-16T04:31:28.987Z,0.00
2022-11-16T04:31:58.947Z,0.00
2022-11-16T04:32:28.965Z,0.00
2022-11-16T04:32:58.947Z,0.00
2022-11-16T04:33:28.915Z,0.00
2022-11-16T04:33:58.894Z,0.00
2022-11-16T04:34:28.868Z,0.00
2022-11-16T04:34:58.852Z,0.00
2022-11-16T04:35:28.825Z,0.00
2022-11-16T04:35:58.800Z,0.00
2022-11-16T04:36:28.771Z,0.00
2022-11-16T04:36:58.752Z,0.00
2022-11-16T04:37:28.719Z,0.00
2022-11-16T04:37:58.714Z,0.00
2022-11-16T04:38:28.716Z,0.00
2022-11-16T04:38:58.711Z,0.00
2022-11-16T04:39:28.712Z,0.00
2022-11-16T04:39:58.687Z,0.00
2022-11-16T04:40:28.648Z,0.00
2022-11-16T04:40:58.621Z,0.00
2022-11-16T04:41:28.592Z,0.00
2022-11-16T04:41:58.578Z,0.00
2022-11-16T04:42:28.542Z,0.00
2022-11-16T04:42:58.528Z,0.00
2022-11-16T04:43:28.532Z,0.00
2022-11-16T04:43:58.502Z,0.00
2022-11-16T04:44:30.052Z,0.00
2022-11-16T04:45:00.099Z,0.00
2022-11-16T04:45:30.069Z,0.00
2022-11-16T04:46:00.081Z,0.00
2022-11-16T04:46:30.052Z,0.00
2022-11-16T04:47:00.023Z,0.00
2022-11-16T04:47:29.987Z,0.00
2022-11-16T04:47:59.997Z,0.00
2022-11-16T04:48:30.307Z,0.00
2022-11-16T04:49:00.306Z,0.00
2022-11-16T04:49:30.270Z,0.00
2022-11-16T04:50:00.233Z,0.00
2022-11-16T04:50:30.196Z,0.00
2022-11-16T04:51:00.187Z,0.00
2022-11-16T04:51:30.153Z,0.00
2022-11-16T04:52:00.130Z,0.00
2022-11-16T04:52:30.105Z,0.00
2022-11-16T04:53:00.120Z,0.00
2022-11-16T04:53:30.089Z,0.00
2022-11-16T04:54:00.092Z,0.00
2022-11-16T04:54:30.064Z,0.00
2022-11-16T04:55:00.053Z,0.00
2022-11-16T04:55:30.057Z,0.00
2022-11-16T04:56:00.971Z,0.00
2022-11-16T04:56:31.159Z,0.00
2022-11-16T04:57:01.141Z,0.00
2022-11-16T04:57:31.136Z,0.00
2022-11-16T04:58:01.097Z,0.00
2022-11-16T04:58:31.349Z,0.00
2022-11-16T04:59:01.599Z,0.00
2022-11-16T04:59:31.569Z,0.00
2022-11-16T05:00:01.543Z,0.00
2022-11-16T05:00:31.515Z,0.00
2022-11-16T05:01:01.549Z,0.00
2022-11-16T05:01:31.638Z,0.00
2022-11-16T05:02:01.659Z,0.00
2022-11-16T05:02:31.652Z,0.00
2022-11-16T05:03:02.068Z,0.00
2022-11-16T05:03:32.089Z,0.00
2022-11-16T05:04:02.058Z,0.00
2022-11-16T05:04:32.025Z,0.00
2022-11-16T05:05:01.983Z,0.00
2022-11-16T05:05:31.948Z,0.00
2022-11-16T05:06:01.941Z,0.00
2022-11-16T05:06:31.906Z,0.00
2022-11-16T05:07:01.944Z,0.00
2022-11-16T05:07:32.052Z,0.00
2022-11-16T05:08:02.087Z,0.00
2022-11-16T05:08:32.423Z,0.00
2022-11-16T05:09:02.629Z,0.00
2022-11-16T05:09:32.589Z,0.00
2022-11-16T05:10:02.552Z,0.00
2022-11-16T05:10:32.516Z,0.00
2022-11-16T05:11:02.479Z,0.00
2022-11-16T05:11:32.452Z,0.00
2022-11-16T05:12:02.412Z,0.00
2022-11-16T05:12:32.406Z,0.00
2022-11-16T05:13:02.390Z,0.00
2022-11-16T05:13:32.351Z,0.00
2022-11-16T05:14:02.329Z,0.00
2022-11-16T05:14:32.291Z,0.00
2022-11-16T05:15:02.263Z,0.00
2022-11-16T05:15:32.228Z,0.00
2022-11-16T05:16:02.210Z,0.00
2022-11-16T05:16:32.182Z,0.00
2022-11-16T05:17:02.151Z,0.00
2022-11-16T05:17:32.106Z,0.00
2022-11-16T05:18:02.100Z,0.00
2022-11-16T05:18:32.438Z,0.00
2022-11-16T05:19:02.621Z,0.00
2022-11-16T05:19:32.582Z,0.00
2022-11-16T05:20:02.556Z,0.00
2022-11-16T05:20:32.530Z,0.00
2022-11-16T05:21:02.509Z,0.00
2022-11-16T05:21:32.484Z,0.00
2022-11-16T05:22:02.458Z,0.00
2022-11-16T05:22:32.430Z,0.00
2022-11-16T05:23:02.456Z,0.00
2022-11-16T05:23:32.416Z,0.00
2022-11-16T05:24:02.414Z,0.00
2022-11-16T05:24:32.378Z,0.00
2022-11-16T05:25:02.361Z,0.00
2022-11-16T05:25:36.446Z,0.00
2022-11-16T05:26:07.039Z,0.00
2022-11-16T05:26:37.001Z,0.00
2022-11-16T05:27:06.973Z,0.00
2022-11-16T05:27:36.946Z,0.00
2022-11-16T05:28:06.935Z,0.00
2022-11-16T05:28:37.275Z,0.00
2022-11-16T05:29:07.485Z,0.00
2022-11-16T05:29:37.456Z,0.00
2022-11-16T05:30:07.459Z,0.00
2022-11-16T05:30:37.431Z,0.00
2022-11-16T05:31:07.417Z,0.00
2022-11-16T05:31:40.453Z,0.00
2022-11-16T05:32:10.668Z,0.00
2022-11-16T05:32:40.641Z,0.00
2022-11-16T05:33:10.615Z,0.00
2022-11-16T05:33:40.586Z,0.00
2022-11-16T05:34:10.563Z,0.00
2022-11-16T05:34:40.542Z,0.00
2022-11-16T05:35:10.512Z,0.00
2022-11-16T05:35:40.486Z,0.00
2022-11-16T05:36:10.459Z,0.00
2022-11-16T05:36:40.438Z,0.00
2022-11-16T05:37:10.402Z,0.00
2022-11-16T05:37:40.374Z,0.00
2022-11-16T05:38:10.378Z,0.00
2022-11-16T05:38:40.379Z,0.00
2022-11-16T05:39:10.411Z,0.00
2022-11-16T05:39:40.398Z,0.00
2022-11-16T05:40:10.366Z,0.00
2022-11-16T05:40:40.332Z,0.00
2022-11-16T05:41:10.316Z,0.00
2022-11-16T05:41:40.289Z,0.00
2022-11-16T05:42:10.260Z,0.00
2022-11-16T05:42:40.241Z,0.00
2022-11-16T05:43:10.206Z,0.00
2022-11-16T05:43:40.177Z,0.00
2022-11-16T05:44:10.152Z,0.00
2022-11-16T05:44:40.158Z,0.00
2022-11-16T05:45:10.120Z,0.00
2022-11-16T05:45:40.124Z,0.00
2022-11-16T05:46:10.117Z,0.00
2022-11-16T05:46:40.089Z,0.00
2022-11-16T05:47:10.076Z,68.00
2022-11-16T05:47:40.048Z,68.00
2022-11-16T05:48:10.023Z,74.00
2022-11-16T05:48:39.985Z,77.00
2022-11-16T05:49:09.951Z,81.00
2022-11-16T05:49:39.965Z,81.00
2022-11-16T05:50:09.927Z,84.00
2022-11-16T05:50:42.702Z,84.00
2022-11-16T05:51:13.119Z,88.00
2022-11-16T05:51:43.084Z,88.00
2022-11-16T05:52:13.075Z,88.00
2022-11-16T05:52:43.032Z,88.00
2022-11-16T05:53:12.995Z,88.00
2022-11-16T05:53:42.969Z,88.00
2022-11-16T05:54:12.969Z,88.00
2022-11-16T05:54:42.937Z,88.00
2022-11-16T05:55:12.902Z,88.00
2022-11-16T05:55:42.876Z,88.00
2022-11-16T05:56:12.926Z,88.00
2022-11-16T05:56:42.981Z,88.00
2022-11-16T05:57:12.975Z,88.00
2022-11-16T05:57:42.933Z,88.00
2022-11-16T05:58:12.895Z,88.00
2022-11-16T05:58:42.869Z,88.00
2022-11-16T05:59:16.458Z,88.00
2022-11-16T05:59:46.712Z,88.00
2022-11-16T06:00:16.687Z,88.00
2022-11-16T06:00:46.659Z,88.00
2022-11-16T06:01:16.631Z,63.00
2022-11-16T06:01:46.596Z,0.00
2022-11-16T06:02:16.577Z,0.00
2022-11-16T06:02:46.591Z,0.00
2022-11-16T06:03:16.619Z,0.00
2022-11-16T06:03:46.611Z,88.00
2022-11-16T06:04:16.576Z,88.00
2022-11-16T06:04:46.676Z,0.00
2022-11-16T06:05:16.640Z,0.00
2022-11-16T06:05:46.602Z,0.00
2022-11-16T06:06:16.567Z,0.00
2022-11-16T06:06:46.530Z,0.00
2022-11-16T06:07:16.611Z,0.00
2022-11-16T06:07:46.588Z,0.00
2022-11-16T06:08:16.603Z,0.00
2022-11-16T06:08:46.572Z,0.00
2022-11-16T06:09:16.544Z,0.00
2022-11-16T06:09:46.529Z,0.00
2022-11-16T06:10:16.500Z,0.00
2022-11-16T06:10:46.485Z,0.00
2022-11-16T06:11:16.739Z,0.00
2022-11-16T06:11:46.716Z,0.00
2022-11-16T06:12:16.694Z,0.00
2022-11-16T06:12:46.663Z,0.00
2022-11-16T06:13:16.633Z,0.00
2022-11-16T06:13:46.610Z,0.00
2022-11-16T06:14:16.596Z,0.00
2022-11-16T06:14:46.561Z,0.00
2022-11-16T06:15:16.535Z,0.00
2022-11-16T06:15:51.571Z,0.00
2022-11-16T06:16:21.807Z,0.00
2022-11-16T06:16:51.769Z,0.00
2022-11-16T06:17:21.766Z,0.00
2022-11-16T06:17:51.741Z,0.00
2022-11-16T06:18:21.703Z,0.00
2022-11-16T06:18:51.685Z,0.00
2022-11-16T06:19:21.672Z,0.00
2022-11-16T06:19:51.638Z,0.00
2022-11-16T06:20:21.638Z,0.00
2022-11-16T06:20:51.662Z,0.00
2022-11-16T06:21:21.638Z,3.00
2022-11-16T06:21:51.625Z,3.00
2022-11-16T06:22:21.595Z,3.00
2022-11-16T06:22:51.584Z,3.00
2022-11-16T06:23:21.548Z,3.00
2022-11-16T06:23:51.519Z,3.00
2022-11-16T06:24:21.491Z,3.00
2022-11-16T06:24:51.455Z,3.00
2022-11-16T06:25:21.420Z,3.00
2022-11-16T06:25:51.408Z,3.00
2022-11-16T06:26:21.379Z,3.00
2022-11-16T06:26:51.353Z,3.00
2022-11-16T06:27:21.318Z,3.00
2022-11-16T06:27:51.301Z,0.00
2022-11-16T06:28:21.267Z,4.00
2022-11-16T06:28:51.231Z,4.00
2022-11-16T06:29:21.201Z,4.00
2022-11-16T06:29:51.216Z,4.00
2022-11-16T06:30:21.180Z,4.00
2022-11-16T06:30:51.149Z,4.00
2022-11-16T06:31:21.120Z,4.00
2022-11-16T06:31:51.333Z,4.00
2022-11-16T06:32:21.300Z,4.00
2022-11-16T06:32:51.265Z,4.00
2022-11-16T06:33:21.256Z,9.00
2022-11-16T06:33:51.222Z,9.00
2022-11-16T06:34:21.215Z,9.00
2022-11-16T06:34:51.186Z,9.00
2022-11-16T06:35:21.156Z,9.00
2022-11-16T06:35:51.149Z,9.00
2022-11-16T06:36:21.153Z,15.00
2022-11-16T06:36:51.126Z,15.00
2022-11-16T06:37:21.101Z,15.00
2022-11-16T06:37:51.071Z,9.00
2022-11-16T06:38:21.040Z,15.00
2022-11-16T06:38:51.011Z,15.00
2022-11-16T06:39:20.978Z,15.00